Time;durP1;ratioP1;P1;durP2;ratioP2;P2;SDS_P1;SDS_P2;PMS_P1;PMS_P2;Temp;Humidity;BMP_temperature;BMP_pressure;BME280_temperature;BME280_humidity;BME280_pressure;Samples;Min_cycle;Max_cycle;Signal;HPM_P1;HPM_P2
2022/04/02 00:02:12;;;;;;;3.10;1.37;;;2.90;98.00;;;;;;6120478;23;20414;-64
2022/04/02 00:04:48;;;;;;;3.10;2.17;;;2.80;98.00;;;;;;6120553;23;20441;-65
2022/04/02 00:07:15;;;;;;;1.50;1.40;;;2.80;98.00;;;;;;6095147;23;20429;-64
2022/04/02 00:09:43;;;;;;;2.90;2.37;;;2.80;98.00;;;;;;6120001;23;20514;-64
2022/04/02 00:12:10;;;;;;;1.20;1.03;;;2.90;98.00;;;;;;6093983;23;20427;-64
2022/04/02 00:14:37;;;;;;;1.30;1.30;;;2.90;98.00;;;;;;6120412;23;20645;-65
2022/04/02 00:17:04;;;;;;;2.40;2.20;;;2.80;98.00;;;;;;6120493;23;20457;-64
2022/04/02 00:19:31;;;;;;;1.83;1.73;;;2.90;98.00;;;;;;6120098;23;20429;-65
2022/04/02 00:22:02;;;;;;;1.20;1.17;;;2.90;98.00;;;;;;6120467;23;20425;-64
2022/04/02 00:24:29;;;;;;;1.20;1.20;;;2.90;98.00;;;;;;6120545;23;20405;-64
2022/04/02 00:26:56;;;;;;;2.40;2.27;;;2.90;98.00;;;;;;6120995;23;20406;-64
2022/04/02 00:29:23;;;;;;;1.50;1.30;;;2.80;98.00;;;;;;6120314;23;20425;-64
2022/04/02 00:31:50;;;;;;;1.60;1.60;;;2.90;98.00;;;;;;6119987;23;20421;-64
2022/04/02 00:34:17;;;;;;;3.60;1.77;;;2.90;98.00;;;;;;6120073;23;20421;-64
2022/04/02 00:36:46;;;;;;;1.50;1.40;;;2.90;98.00;;;;;;6120068;23;20880;-64
2022/04/02 00:39:14;;;;;;;1.57;1.33;;;2.90;98.00;;;;;;6120544;23;20572;-64
2022/04/02 00:41:41;;;;;;;1.60;1.47;;;3.10;98.00;;;;;;6119992;23;20445;-64
2022/04/02 00:44:12;;;;;;;1.20;1.10;;;3.20;98.00;;;;;;6120018;23;20966;-64
2022/04/02 00:46:40;;;;;;;1.47;1.17;;;3.20;98.00;;;;;;6120360;23;20401;-64
2022/04/02 00:49:07;;;;;;;1.63;1.60;;;3.10;98.00;;;;;;6120435;23;20423;-64
2022/04/02 00:51:41;;;;;;;1.57;1.30;;;3.20;98.00;;;;;;6091813;23;20466;-64
2022/04/02 00:54:09;;;;;;;3.97;2.50;;;3.30;98.00;;;;;;6091461;23;20771;-64
2022/04/02 00:56:39;;;;;;;1.93;1.83;;;3.20;98.00;;;;;;6090850;23;20419;-64
2022/04/02 00:59:08;;;;;;;3.23;2.10;;;3.10;98.00;;;;;;6090814;23;20409;-64
2022/04/02 01:01:36;;;;;;;1.40;1.30;;;3.20;98.00;;;;;;6091032;23;20437;-64
2022/04/02 01:04:06;;;;;;;2.40;2.23;;;3.20;98.00;;;;;;6090818;23;20881;-64
2022/04/02 01:06:34;;;;;;;1.70;1.60;;;3.20;98.00;;;;;;6091184;23;20461;-64
2022/04/02 01:09:02;;;;;;;1.20;1.20;;;3.10;98.00;;;;;;6090985;23;20418;-64
2022/04/02 01:11:38;;;;;;;1.20;1.03;;;3.10;98.00;;;;;;6090937;23;20500;-64
2022/04/02 01:14:05;;;;;;;1.80;1.40;;;2.90;98.00;;;;;;6090839;23;20437;-64
2022/04/02 01:16:33;;;;;;;1.90;1.80;;;3.00;98.00;;;;;;6090927;23;20418;-64
2022/04/02 01:19:01;;;;;;;1.20;1.20;;;3.00;98.00;;;;;;6091394;23;20752;-64
2022/04/02 01:21:28;;;;;;;2.40;2.03;;;3.00;98.00;;;;;;6090981;23;20422;-64
2022/04/02 01:23:56;;;;;;;1.97;1.87;;;3.10;98.00;;;;;;6090395;23;20476;-64
2022/04/02 01:26:25;;;;;;;1.60;1.43;;;3.20;98.00;;;;;;6090617;23;20454;-64
2022/04/02 01:28:54;;;;;;;1.20;1.13;;;3.30;98.00;;;;;;6090940;23;20430;-64
2022/04/02 01:31:23;;;;;;;1.70;1.60;;;3.30;98.00;;;;;;6090834;23;20752;-64
2022/04/02 01:33:51;;;;;;;2.80;1.97;;;3.40;98.00;;;;;;6090833;23;20399;-64
2022/04/02 01:36:18;;;;;;;3.77;2.50;;;3.40;98.00;;;;;;6090544;23;20418;-64
2022/04/02 01:38:46;;;;;;;2.37;1.30;;;3.40;98.00;;;;;;6090268;23;20434;-64
2022/04/02 01:41:15;;;;;;;1.20;1.20;;;3.40;98.00;;;;;;6091111;23;20476;-64
2022/04/02 01:43:43;;;;;;;1.20;1.10;;;3.40;98.00;;;;;;6090820;23;20438;-64
2022/04/02 01:46:11;;;;;;;1.60;1.50;;;3.30;98.00;;;;;;6091002;23;20465;-64
2022/04/02 01:48:38;;;;;;;2.00;1.80;;;3.20;98.00;;;;;;6090797;23;20446;-64
2022/04/02 01:51:05;;;;;;;2.53;1.63;;;3.30;98.00;;;;;;6113965;23;20495;-64
2022/04/02 01:53:33;;;;;;;2.27;1.93;;;3.30;98.00;;;;;;6119726;23;20479;-64
2022/04/02 01:56:00;;;;;;;1.47;1.40;;;3.30;98.00;;;;;;6119971;23;20398;-64
2022/04/02 01:58:29;;;;;;;1.57;1.50;;;3.40;98.00;;;;;;6094149;23;20892;-64
2022/04/02 02:00:56;;;;;;;8.60;2.17;;;3.40;98.00;;;;;;6119416;23;20467;-64
2022/04/02 02:03:24;;;;;;;1.20;1.07;;;3.40;98.00;;;;;;6119918;23;20433;-64
2022/04/02 02:05:53;;;;;;;1.20;1.10;;;3.30;98.00;;;;;;6119797;23;20405;-64
2022/04/02 02:08:20;;;;;;;1.93;1.80;;;3.40;98.00;;;;;;6119755;23;20403;-64
2022/04/02 02:10:48;;;;;;;1.20;1.10;;;3.40;98.00;;;;;;6119742;23;20479;-64
2022/04/02 02:13:15;;;;;;;1.97;1.70;;;3.30;98.00;;;;;;6094325;23;20417;-64
2022/04/02 02:15:43;;;;;;;1.17;1.00;;;3.30;98.00;;;;;;6119327;23;20414;-64
2022/04/02 02:18:11;;;;;;;3.00;1.80;;;3.30;98.00;;;;;;6119579;23;20519;-64
2022/04/02 02:20:37;;;;;;;2.03;1.30;;;3.30;98.00;;;;;;6119945;23;20439;-64
2022/04/02 02:23:04;;;;;;;1.63;1.60;;;3.20;98.00;;;;;;6119217;23;20908;-64
2022/04/02 02:25:32;;;;;;;1.53;1.50;;;3.20;98.00;;;;;;6119633;23;20421;-64
2022/04/02 02:27:59;;;;;;;2.27;1.77;;;3.30;98.00;;;;;;6119549;23;20745;-64
2022/04/02 02:30:27;;;;;;;1.57;1.47;;;3.30;98.00;;;;;;6119219;23;20448;-64
2022/04/02 02:35:49;;;;;;;1.37;1.27;;;3.30;98.00;;;;;;6119179;23;20422;-63
2022/04/02 02:35:51;;;;;;;4.23;3.00;;;3.20;98.00;;;;;;6119912;23;20907;-64
2022/04/02 02:38:20;;;;;;;1.23;1.23;;;3.10;98.00;;;;;;6120688;23;20480;-64
2022/04/02 02:40:48;;;;;;;1.10;1.00;;;3.10;98.00;;;;;;6121108;23;20507;-64
2022/04/02 02:43:15;;;;;;;1.20;1.10;;;3.10;98.00;;;;;;6120895;23;20426;-64
2022/04/02 02:45:42;;;;;;;1.83;1.73;;;3.20;98.00;;;;;;6120913;23;20412;-64
2022/04/02 02:48:11;;;;;;;2.23;2.03;;;3.20;98.00;;;;;;6120948;23;20758;-64
2022/04/02 02:50:39;;;;;;;1.83;1.23;;;3.20;98.00;;;;;;6120265;23;20972;-64
2022/04/02 02:53:06;;;;;;;1.60;1.60;;;3.20;98.00;;;;;;6120434;23;20905;-64
2022/04/02 02:55:33;;;;;;;1.50;1.40;;;3.20;98.00;;;;;;6121149;23;20417;-64
2022/04/02 02:58:00;;;;;;;1.60;1.50;;;3.20;98.00;;;;;;6120779;23;20401;-64
2022/04/02 03:00:28;;;;;;;1.60;1.50;;;3.20;98.00;;;;;;6120932;23;20386;-64
2022/04/02 03:02:58;;;;;;;1.70;1.70;;;3.20;98.00;;;;;;6120420;23;20401;-64
2022/04/02 03:05:26;;;;;;;3.40;1.70;;;3.20;98.00;;;;;;6120911;23;20445;-64
2022/04/02 03:07:53;;;;;;;1.37;1.33;;;3.00;98.00;;;;;;6120664;23;20808;-64
2022/04/02 03:10:22;;;;;;;2.70;1.47;;;3.00;98.00;;;;;;6120589;23;20945;-64
2022/04/02 03:12:51;;;;;;;1.20;1.10;;;3.10;98.00;;;;;;6120560;23;20492;-64
2022/04/02 03:15:19;;;;;;;1.30;1.13;;;3.10;98.00;;;;;;6121053;23;20455;-64
2022/04/02 03:17:46;;;;;;;1.20;1.00;;;3.10;98.00;;;;;;6120409;23;20881;-64
2022/04/02 03:20:14;;;;;;;1.20;1.10;;;3.10;98.00;;;;;;6121005;23;20421;-64
2022/04/02 03:22:45;;;;;;;1.20;1.20;;;3.00;98.00;;;;;;6120631;23;20942;-64
2022/04/02 03:25:14;;;;;;;1.87;1.70;;;2.90;98.00;;;;;;6121380;23;20407;-64
2022/04/02 03:27:43;;;;;;;1.40;1.37;;;2.80;98.00;;;;;;6120799;23;20421;-64
2022/04/02 03:30:12;;;;;;;1.17;1.00;;;2.80;98.00;;;;;;6120956;23;20452;-64
2022/04/02 03:32:39;;;;;;;1.53;1.37;;;2.90;98.00;;;;;;6120822;23;20480;-65
2022/04/02 03:35:08;;;;;;;1.47;1.40;;;2.90;98.00;;;;;;6120706;23;20456;-64
2022/04/02 03:37:37;;;;;;;1.47;1.37;;;3.00;98.00;;;;;;6120917;23;20417;-64
2022/04/02 03:40:07;;;;;;;1.30;1.20;;;2.80;98.00;;;;;;6120750;23;20418;-64
2022/04/02 03:42:34;;;;;;;1.40;1.10;;;2.70;98.00;;;;;;6121868;23;20471;-64
2022/04/02 03:45:01;;;;;;;1.63;1.53;;;2.50;98.00;;;;;;6120897;23;20398;-64
2022/04/02 03:47:29;;;;;;;1.40;1.23;;;2.40;98.00;;;;;;6121075;23;20464;-64
2022/04/02 03:49:56;;;;;;;1.30;1.20;;;2.40;98.00;;;;;;6120339;23;20998;-64
2022/04/02 03:52:24;;;;;;;1.20;1.07;;;2.50;98.00;;;;;;6095229;23;20445;-64
2022/04/02 03:54:51;;;;;;;1.50;1.50;;;2.60;98.00;;;;;;6120468;23;20500;-64
2022/04/02 03:57:20;;;;;;;1.30;1.27;;;2.50;98.00;;;;;;6120436;23;20410;-64
2022/04/02 03:59:47;;;;;;;2.00;1.50;;;2.60;98.00;;;;;;6120505;23;20417;-64
2022/04/02 04:02:14;;;;;;;2.80;2.00;;;2.60;98.00;;;;;;6120629;23;20401;-64
2022/04/02 04:04:42;;;;;;;1.40;1.40;;;2.70;98.00;;;;;;6094796;23;20456;-64
2022/04/02 04:07:09;;;;;;;1.20;1.10;;;2.60;98.00;;;;;;6120221;23;20434;-64
2022/04/02 04:09:37;;;;;;;1.90;1.80;;;2.60;98.00;;;;;;6120873;23;20402;-64
2022/04/02 04:12:05;;;;;;;1.60;1.57;;;2.60;98.00;;;;;;6120116;23;20446;-64
2022/04/02 04:14:33;;;;;;;1.47;1.40;;;2.60;98.00;;;;;;6120486;23;20448;-64
2022/04/02 04:17:01;;;;;;;1.63;1.27;;;2.70;98.00;;;;;;6120725;23;20439;-63
2022/04/02 04:19:28;;;;;;;1.57;1.50;;;2.80;98.00;;;;;;6120948;23;20402;-64
2022/04/02 04:21:55;;;;;;;1.17;1.10;;;2.90;98.00;;;;;;6120328;23;20440;-63
2022/04/02 04:24:22;;;;;;;1.13;1.13;;;2.90;98.00;;;;;;6120450;23;20425;-64
2022/04/02 04:26:49;;;;;;;2.70;1.77;;;2.90;98.00;;;;;;6120357;23;20421;-64
2022/04/02 04:29:16;;;;;;;1.53;1.47;;;2.90;98.00;;;;;;6120385;23;20463;-64
2022/04/02 04:31:45;;;;;;;1.10;1.00;;;2.90;98.00;;;;;;6120044;23;20473;-64
2022/04/02 04:34:17;;;;;;;1.90;1.67;;;2.80;98.00;;;;;;6120383;23;20418;-64
2022/04/02 04:36:44;;;;;;;1.20;1.00;;;2.70;98.00;;;;;;6120367;23;20406;-63
2022/04/02 04:39:11;;;;;;;3.00;1.40;;;2.70;98.00;;;;;;6120280;23;20421;-63
2022/04/02 04:41:38;;;;;;;1.13;1.00;;;2.70;98.00;;;;;;6120101;23;20421;-64
2022/04/02 04:44:06;;;;;;;2.37;2.23;;;2.70;98.00;;;;;;6120398;23;20417;-64
2022/04/02 04:46:33;;;;;;;1.60;1.27;;;2.70;98.00;;;;;;6120138;23;20405;-64
2022/04/02 04:49:01;;;;;;;1.30;1.10;;;2.80;98.00;;;;;;6120299;23;20779;-64
2022/04/02 04:51:30;;;;;;;1.63;1.63;;;2.80;98.00;;;;;;6119807;23;20504;-64
2022/04/02 04:53:56;;;;;;;1.80;1.33;;;2.70;98.00;;;;;;6120253;23;20444;-63
2022/04/02 04:56:23;;;;;;;1.20;1.20;;;2.70;98.00;;;;;;6120306;23;20449;-64
2022/04/02 04:58:50;;;;;;;1.43;1.37;;;2.60;98.00;;;;;;6093796;23;20841;-64
2022/04/02 05:01:18;;;;;;;1.60;1.40;;;2.60;98.00;;;;;;6120493;23;20718;-64
2022/04/02 05:03:45;;;;;;;1.13;0.97;;;2.60;98.00;;;;;;6119617;23;20413;-64
2022/04/02 05:06:13;;;;;;;1.83;1.40;;;2.60;98.00;;;;;;6094088;23;20988;-64
2022/04/02 05:08:41;;;;;;;1.63;1.53;;;2.60;98.00;;;;;;6120420;23;20441;-63
2022/04/02 05:11:10;;;;;;;1.20;1.20;;;2.60;98.00;;;;;;6119954;23;20448;-64
2022/04/02 05:13:40;;;;;;;1.20;1.20;;;2.40;98.00;;;;;;6120016;23;20653;-63
2022/04/02 05:16:08;;;;;;;1.40;1.33;;;2.50;98.00;;;;;;6120280;23;20501;-64
2022/04/02 05:18:35;;;;;;;1.30;1.23;;;2.60;98.00;;;;;;6119710;23;20932;-64
2022/04/02 05:21:03;;;;;;;1.60;1.30;;;2.60;98.00;;;;;;6119980;23;20406;-64
2022/04/02 05:23:32;;;;;;;1.93;1.50;;;2.70;98.00;;;;;;6119829;23;20986;-64
2022/04/02 05:25:59;;;;;;;1.40;1.40;;;2.70;98.00;;;;;;6120203;23;20408;-64
2022/04/02 05:28:28;;;;;;;2.33;2.13;;;2.60;98.00;;;;;;6120160;23;20460;-64
2022/04/02 05:30:55;;;;;;;2.70;1.23;;;2.60;98.00;;;;;;6121123;23;20524;-63
2022/04/02 05:33:22;;;;;;;4.77;2.90;;;2.60;98.00;;;;;;6119770;23;20418;-63
2022/04/02 05:35:49;;;;;;;1.50;1.10;;;2.60;98.00;;;;;;6120275;23;20487;-64
2022/04/02 05:38:16;;;;;;;1.47;1.40;;;2.70;98.00;;;;;;6120043;23;20427;-64
2022/04/02 05:40:45;;;;;;;2.63;1.93;;;2.70;98.00;;;;;;6120098;23;20453;-64
2022/04/02 05:43:12;;;;;;;1.97;1.30;;;2.70;98.00;;;;;;6120195;23;20448;-64
2022/04/02 05:45:39;;;;;;;1.30;1.30;;;2.70;98.00;;;;;;6094592;23;20760;-64
2022/04/02 05:48:06;;;;;;;1.77;1.77;;;2.80;98.00;;;;;;6119659;23;20475;-64
2022/04/02 05:50:34;;;;;;;2.80;1.73;;;2.80;98.00;;;;;;6119717;23;20426;-64
2022/04/02 05:53:01;;;;;;;1.10;1.00;;;2.90;98.00;;;;;;6119962;23;20818;-64
2022/04/02 05:55:31;;;;;;;1.20;1.13;;;3.00;98.00;;;;;;6120092;23;20437;-64
2022/04/02 05:58:00;;;;;;;1.30;1.20;;;3.00;98.00;;;;;;6119944;23;20467;-64
2022/04/02 06:00:29;;;;;;;1.60;1.30;;;3.00;98.00;;;;;;6120014;23;20432;-64
2022/04/02 06:02:55;;;;;;;1.17;1.03;;;2.90;98.00;;;;;;6120283;23;20991;-64
2022/04/02 06:05:24;;;;;;;1.93;1.83;;;3.00;98.00;;;;;;6120111;23;20420;-64
2022/04/02 06:07:51;;;;;;;1.20;1.20;;;3.00;98.00;;;;;;6120179;23;20401;-64
2022/04/02 06:10:18;;;;;;;1.10;1.00;;;2.90;98.00;;;;;;6094465;23;20500;-64
2022/04/02 06:12:45;;;;;;;2.27;1.93;;;3.00;98.00;;;;;;6121557;23;20464;-64
2022/04/02 06:15:13;;;;;;;1.20;1.00;;;2.90;98.00;;;;;;6121062;23;20451;-64
2022/04/02 06:17:40;;;;;;;1.40;1.20;;;2.90;98.00;;;;;;6120773;23;20451;-64
2022/04/02 06:20:08;;;;;;;1.40;1.30;;;3.00;98.00;;;;;;6095406;23;20405;-64
2022/04/02 06:22:35;;;;;;;1.50;1.33;;;3.00;98.00;;;;;;6121200;23;20449;-64
2022/04/02 06:25:03;;;;;;;1.20;1.10;;;3.00;98.00;;;;;;6120740;23;20755;-64
2022/04/02 06:27:30;;;;;;;1.60;1.50;;;3.00;98.00;;;;;;6121064;23;20456;-65
2022/04/02 06:29:58;;;;;;;1.20;0.97;;;3.00;98.00;;;;;;6120939;23;20420;-64
2022/04/02 06:32:26;;;;;;;1.83;1.53;;;3.10;98.00;;;;;;6120888;23;20433;-64
2022/04/02 06:34:53;;;;;;;2.00;1.37;;;3.10;98.00;;;;;;6120416;23;20915;-64
2022/04/02 06:37:20;;;;;;;1.63;1.57;;;3.00;98.00;;;;;;6120633;23;20424;-64
2022/04/02 06:39:47;;;;;;;1.40;1.27;;;3.10;98.00;;;;;;6120575;23;20417;-64
2022/04/02 06:42:14;;;;;;;1.20;1.00;;;3.00;98.00;;;;;;6120515;23;20424;-64
2022/04/02 06:44:41;;;;;;;1.17;0.90;;;3.10;98.00;;;;;;6120901;23;20751;-64
2022/04/02 06:47:08;;;;;;;1.87;1.40;;;3.10;98.00;;;;;;6095222;23;20472;-65
2022/04/02 06:49:37;;;;;;;2.10;1.83;;;3.20;98.00;;;;;;6120737;23;20478;-64
2022/04/02 06:52:05;;;;;;;1.40;1.40;;;3.20;98.00;;;;;;6121000;23;20464;-64
2022/04/02 06:54:33;;;;;;;1.20;1.00;;;3.20;98.00;;;;;;6120351;23;20425;-65
2022/04/02 06:57:00;;;;;;;2.17;1.70;;;3.20;98.00;;;;;;6120734;23;20401;-65
2022/04/02 06:59:27;;;;;;;1.20;1.13;;;3.20;98.00;;;;;;6120562;23;20932;-64
2022/04/02 07:01:54;;;;;;;1.17;1.00;;;3.20;98.00;;;;;;6120416;23;20876;-64
2022/04/02 07:04:23;;;;;;;3.73;2.20;;;3.10;98.00;;;;;;6094595;23;20958;-64
2022/04/02 07:06:51;;;;;;;3.03;1.73;;;3.10;98.00;;;;;;6120768;23;20421;-64
2022/04/02 07:09:18;;;;;;;2.00;1.77;;;3.20;98.00;;;;;;6120707;23;20412;-65
2022/04/02 07:11:45;;;;;;;1.87;1.80;;;3.20;98.00;;;;;;6120288;23;20429;-64
2022/04/02 07:14:13;;;;;;;1.70;1.60;;;3.30;98.00;;;;;;6120657;23;20418;-64
2022/04/02 07:16:40;;;;;;;1.83;1.70;;;3.30;98.00;;;;;;6120686;23;20754;-64
2022/04/02 07:19:09;;;;;;;1.90;1.77;;;3.20;98.00;;;;;;6094680;23;20421;-64
2022/04/02 07:21:37;;;;;;;1.90;1.17;;;3.20;98.00;;;;;;6119986;23;20904;-64
2022/04/02 07:24:08;;;;;;;1.50;1.30;;;3.30;98.00;;;;;;6120495;23;20417;-64
2022/04/02 07:26:38;;;;;;;1.80;1.80;;;3.20;98.00;;;;;;6120484;23;20860;-64
2022/04/02 07:29:07;;;;;;;1.70;1.60;;;3.20;98.00;;;;;;6120644;23;20459;-63
2022/04/02 07:31:34;;;;;;;5.83;3.07;;;3.20;98.00;;;;;;6120524;23;20406;-64
2022/04/02 07:34:01;;;;;;;1.87;1.40;;;3.20;98.00;;;;;;6120416;23;20401;-65
2022/04/02 07:36:36;;;;;;;1.30;1.10;;;3.10;98.00;;;;;;6120648;23;20405;-64
2022/04/02 07:39:11;;;;;;;2.43;1.73;;;3.00;98.00;;;;;;6120543;23;20436;-63
2022/04/02 07:41:46;;;;;;;1.53;1.53;;;3.00;98.00;;;;;;6120571;23;20411;-63
2022/04/02 07:44:31;;;;;;;1.20;1.10;;;3.00;98.00;;;;;;6118953;23;20429;-64
2022/04/02 07:47:00;;;;;;;1.20;1.20;;;3.00;98.00;;;;;;6119068;23;20881;-63
2022/04/02 07:49:29;;;;;;;1.20;1.17;;;2.90;98.00;;;;;;6118581;23;20491;-64
2022/04/02 07:51:57;;;;;;;1.20;1.13;;;2.90;98.00;;;;;;6118478;23;20456;-63
2022/04/02 07:54:27;;;;;;;1.50;1.50;;;3.00;98.00;;;;;;6119129;23;20482;-63
2022/04/02 07:56:57;;;;;;;1.30;1.10;;;3.10;98.00;;;;;;6119432;23;20799;-66
2022/04/02 07:59:32;;;;;;;1.27;1.23;;;3.20;98.00;;;;;;6119456;23;20488;-67
2022/04/02 08:02:00;;;;;;;1.30;1.10;;;3.10;98.00;;;;;;6119568;23;20406;-67
2022/04/02 08:04:29;;;;;;;1.10;1.00;;;3.00;98.00;;;;;;6119565;23;20401;-64
2022/04/02 08:06:56;;;;;;;1.20;1.10;;;3.00;98.00;;;;;;6119451;23;20401;-64
2022/04/02 08:09:25;;;;;;;1.47;1.20;;;2.90;98.00;;;;;;6119681;23;20421;-64
2022/04/02 08:11:56;;;;;;;1.63;1.53;;;2.80;98.00;;;;;;6120553;23;20437;-64
2022/04/02 08:14:25;;;;;;;1.40;1.30;;;2.80;98.00;;;;;;6120458;23;20401;-65
2022/04/02 08:16:52;;;;;;;1.57;1.30;;;3.00;98.00;;;;;;6120327;23;20864;-66
2022/04/02 08:19:23;;;;;;;1.50;1.50;;;3.00;98.00;;;;;;6120377;23;20433;-65
2022/04/02 08:21:49;;;;;;;2.23;1.93;;;2.90;98.00;;;;;;6120691;23;20406;-65
2022/04/02 08:24:16;;;;;;;1.57;1.20;;;2.90;98.00;;;;;;6120650;23;20440;-65
2022/04/02 08:26:56;;;;;;;1.47;1.40;;;3.00;98.00;;;;;;6120271;23;20456;-65
2022/04/02 08:29:31;;;;;;;1.20;1.10;;;3.10;98.00;;;;;;6120206;23;20494;-65
2022/04/02 08:32:09;;;;;;;1.10;0.90;;;3.10;98.00;;;;;;6120543;23;20410;-65
2022/04/02 08:35:02;;;;;;;2.77;2.23;;;3.00;98.00;;;;;;6120174;23;20713;-65
2022/04/02 08:37:35;;;;;;;1.20;1.10;;;3.10;98.00;;;;;;6120948;23;20459;-65
2022/04/02 08:40:13;;;;;;;1.40;1.30;;;3.00;98.00;;;;;;6094728;23;20938;-65
2022/04/02 08:43:26;;;;;;;1.13;1.00;;;2.90;98.00;;;;;;6120209;23;20403;-65
2022/04/02 08:45:59;;;;;;;1.57;1.50;;;3.00;98.00;;;;;;6103878;23;20436;-65
2022/04/02 08:48:28;;;;;;;1.10;1.00;;;3.00;98.00;;;;;;6119979;23;20504;-65
2022/04/02 08:51:06;;;;;;;1.10;0.90;;;3.00;98.00;;;;;;6119921;23;20512;-65
2022/04/02 08:54:02;;;;;;;1.40;1.17;;;3.00;98.00;;;;;;6120266;23;20966;-65
2022/04/02 08:56:32;;;;;;;1.20;1.20;;;3.00;98.00;;;;;;6120315;23;20494;-64
2022/04/02 08:59:04;;;;;;;1.83;1.77;;;3.10;98.00;;;;;;6119935;23;20420;-64
2022/04/02 09:01:40;;;;;;;1.30;1.30;;;3.10;98.00;;;;;;6120562;23;20401;-65
2022/04/02 09:04:51;;;;;;;1.40;1.30;;;3.10;98.00;;;;;;6120366;23;20719;-64
2022/04/02 09:08:04;;;;;;;1.10;0.97;;;3.20;98.00;;;;;;6094719;23;20401;-65
2022/04/02 09:10:55;;;;;;;1.37;1.10;;;3.20;98.00;;;;;;6120455;23;20405;-65
2022/04/02 09:13:59;;;;;;;1.20;1.07;;;3.10;98.00;;;;;;6120121;23;20445;-66
2022/04/02 09:16:28;;;;;;;1.27;1.20;;;3.00;98.00;;;;;;6120528;23;20427;-65
2022/04/02 09:19:12;;;;;;;1.60;1.50;;;3.10;98.00;;;;;;6120264;23;20923;-64
2022/04/02 09:22:05;;;;;;;1.40;1.30;;;3.30;98.00;;;;;;6120454;23;20724;-65
2022/04/02 09:25:04;;;;;;;1.20;1.10;;;3.20;98.00;;;;;;6093981;23;20428;-65
2022/04/02 09:27:52;;;;;;;1.10;1.00;;;3.20;98.00;;;;;;6120597;23;20480;-66
2022/04/02 09:30:42;;;;;;;1.17;1.10;;;3.20;98.00;;;;;;6120588;23;20406;-65
2022/04/02 09:33:30;;;;;;;1.73;1.40;;;3.10;98.00;;;;;;6094925;23;20464;-66
2022/04/02 09:36:28;;;;;;;1.40;1.40;;;3.10;98.00;;;;;;6119965;23;20409;-66
2022/04/02 09:39:07;;;;;;;1.10;0.90;;;3.10;98.00;;;;;;6119594;23;20455;-65
2022/04/02 09:41:52;;;;;;;1.20;1.10;;;2.90;98.00;;;;;;6119597;23;20910;-66
2022/04/02 09:44:40;;;;;;;1.20;1.20;;;3.00;98.00;;;;;;6117527;23;20441;-66
2022/04/02 09:47:18;;;;;;;1.20;1.10;;;3.10;98.00;;;;;;6118911;23;20458;-65
2022/04/02 09:49:57;;;;;;;1.60;1.60;;;3.20;98.00;;;;;;6117845;23;20467;-64
2022/04/02 09:52:27;;;;;;;1.57;1.50;;;3.10;98.00;;;;;;6092554;23;20939;-64
2022/04/02 09:55:06;;;;;;;2.90;1.60;;;3.20;98.00;;;;;;6092527;23;20456;-65
2022/04/02 09:57:41;;;;;;;2.13;1.63;;;3.30;98.00;;;;;;6117647;23;20405;-65
2022/04/02 10:00:10;;;;;;;1.70;1.60;;;3.40;98.00;;;;;;6116444;23;20408;-65
2022/04/02 10:03:06;;;;;;;1.20;1.10;;;3.40;98.00;;;;;;6117417;23;20741;-65
2022/04/02 10:05:44;;;;;;;1.20;1.17;;;3.50;98.00;;;;;;6116998;23;20436;-65
2022/04/02 10:08:22;;;;;;;1.27;1.20;;;3.40;98.00;;;;;;6116855;23;20713;-65
2022/04/02 10:10:51;;;;;;;1.30;1.30;;;3.40;98.00;;;;;;6116914;23;20455;-65
2022/04/02 10:13:18;;;;;;;1.30;1.20;;;3.50;98.00;;;;;;6116798;23;20439;-64
2022/04/02 10:15:49;;;;;;;1.20;1.00;;;3.50;98.00;;;;;;6117806;23;20401;-64
2022/04/02 10:18:22;;;;;;;1.40;1.20;;;3.40;98.00;;;;;;6116989;23;20417;-64
2022/04/02 10:20:52;;;;;;;1.83;1.67;;;3.30;98.00;;;;;;6117856;23;20935;-64
2022/04/02 10:23:23;;;;;;;1.20;1.10;;;3.20;98.00;;;;;;6118884;23;20425;-64
2022/04/02 10:26:16;;;;;;;1.70;1.20;;;3.20;98.00;;;;;;6118755;23;20398;-65
2022/04/02 10:28:51;;;;;;;1.73;1.27;;;3.20;98.00;;;;;;6118205;23;20509;-64
2022/04/02 10:31:36;;;;;;;1.47;1.40;;;3.10;98.00;;;;;;6118681;23;20447;-65
2022/04/02 10:34:12;;;;;;;1.37;1.33;;;3.00;98.00;;;;;;6118466;23;20771;-64
2022/04/02 10:36:45;;;;;;;1.20;1.20;;;3.00;98.00;;;;;;6093623;23;20401;-65
2022/04/02 10:39:15;;;;;;;1.57;1.30;;;2.90;98.00;;;;;;6118578;23;20442;-64
2022/04/02 10:41:45;;;;;;;1.30;1.23;;;2.90;98.00;;;;;;6118438;23;20433;-64
2022/04/02 10:44:22;;;;;;;1.40;1.40;;;2.80;98.00;;;;;;6117803;23;20404;-65
2022/04/02 10:46:53;;;;;;;1.30;1.30;;;2.90;98.00;;;;;;6118054;23;20441;-65
2022/04/02 10:49:27;;;;;;;1.83;1.77;;;2.90;98.00;;;;;;6117297;23;20489;-65
2022/04/02 10:51:56;;;;;;;1.37;1.33;;;3.10;98.00;;;;;;6117608;23;20456;-64
2022/04/02 10:54:30;;;;;;;1.37;1.27;;;3.20;98.00;;;;;;6118267;23;20457;-65
2022/04/02 10:56:58;;;;;;;2.33;1.67;;;3.20;98.00;;;;;;6119175;23;20776;-65
2022/04/02 10:59:30;;;;;;;2.37;1.60;;;3.30;98.00;;;;;;6119399;23;20421;-64
2022/04/02 11:02:00;;;;;;;1.60;1.13;;;3.30;98.00;;;;;;6120031;23;20439;-65
2022/04/02 11:04:30;;;;;;;1.20;1.10;;;3.40;98.00;;;;;;6119837;23;20397;-64
2022/04/02 11:06:58;;;;;;;1.20;1.20;;;3.60;98.00;;;;;;6119488;23;20413;-65
2022/04/02 11:09:36;;;;;;;1.20;1.20;;;3.50;98.00;;;;;;6119368;23;20418;-65
2022/04/02 11:12:08;;;;;;;1.60;1.50;;;3.50;98.00;;;;;;6119454;23;20405;-64
2022/04/02 11:14:39;;;;;;;1.50;1.23;;;3.40;98.00;;;;;;6119852;23;20445;-65
2022/04/02 11:17:07;;;;;;;2.60;1.73;;;3.50;98.00;;;;;;6119811;23;20800;-64
2022/04/02 11:22:26;;;;;;;1.10;1.10;;;3.40;98.00;;;;;;6129500;23;20447;-64
2022/04/02 11:25:03;;;;;;;1.53;1.43;;;3.20;98.00;;;;;;6119298;23;20419;-65
2022/04/02 11:27:35;;;;;;;1.73;1.63;;;3.10;98.00;;;;;;6119778;23;20400;-64
2022/04/02 11:30:06;;;;;;;1.10;1.10;;;2.90;98.00;;;;;;6119736;23;20455;-65
2022/04/02 11:32:40;;;;;;;2.10;1.63;;;2.90;98.00;;;;;;6118877;23;20880;-65
2022/04/02 11:35:14;;;;;;;1.93;1.83;;;2.90;98.00;;;;;;6119585;23;20401;-67
2022/04/02 11:38:00;;;;;;;3.27;2.13;;;2.90;98.00;;;;;;6119478;23;20408;-65
2022/04/02 11:40:31;;;;;;;1.27;1.17;;;3.00;98.00;;;;;;6119605;23;20417;-66
2022/04/02 11:43:01;;;;;;;2.00;1.37;;;3.00;98.00;;;;;;6119797;23;20855;-66
2022/04/02 11:45:29;;;;;;;1.63;1.57;;;3.10;98.00;;;;;;6118990;23;20448;-64
2022/04/02 11:48:06;;;;;;;1.50;1.37;;;3.20;98.00;;;;;;6119398;23;20914;-65
2022/04/02 11:50:34;;;;;;;1.97;1.57;;;3.20;98.00;;;;;;6118485;23;20890;-64
2022/04/02 11:53:02;;;;;;;3.20;1.70;;;3.20;98.00;;;;;;6119371;23;20432;-65
2022/04/02 11:55:35;;;;;;;1.87;1.37;;;3.10;98.00;;;;;;6119731;23;20464;-64
2022/04/02 11:58:07;;;;;;;1.20;1.20;;;3.10;98.00;;;;;;6119801;23;20428;-65
2022/04/02 12:00:35;;;;;;;1.93;1.40;;;3.10;98.00;;;;;;6119403;23;20496;-64
2022/04/02 12:03:03;;;;;;;1.95;1.85;;;3.20;98.00;;;;;;6118107;23;20461;-64
2022/04/02 12:05:46;;;;;;;1.70;1.70;;;3.30;98.00;;;;;;6092709;23;20580;-65
2022/04/02 12:08:28;;;;;;;3.10;2.23;;;3.30;98.00;;;;;;6117454;23;20418;-65
2022/04/02 12:10:58;;;;;;;2.17;1.57;;;3.40;98.00;;;;;;6119182;23;20974;-65
2022/04/02 12:13:25;;;;;;;1.77;1.43;;;3.30;98.00;;;;;;6119305;23;20445;-65
2022/04/02 12:16:04;;;;;;;2.53;1.93;;;3.20;98.00;;;;;;6118520;23;20424;-66
2022/04/02 12:18:33;;;;;;;1.60;1.33;;;3.10;98.00;;;;;;6093839;23;20427;-64
2022/04/02 12:21:07;;;;;;;1.57;1.50;;;3.20;98.00;;;;;;6119541;23;20402;-64
2022/04/02 12:23:36;;;;;;;2.03;1.93;;;3.20;98.00;;;;;;6119415;23;20470;-64
2022/04/02 12:26:05;;;;;;;1.20;1.13;;;3.20;98.00;;;;;;6117163;23;20492;-64
2022/04/02 12:28:40;;;;;;;1.60;1.50;;;3.30;98.00;;;;;;6117874;23;20409;-65
2022/04/02 12:31:08;;;;;;;1.97;1.80;;;3.20;98.00;;;;;;6118454;23;20479;-64
2022/04/02 12:33:35;;;;;;;1.57;1.50;;;3.20;98.00;;;;;;6118202;23;20459;-65
2022/04/02 12:36:09;;;;;;;4.00;2.60;;;3.10;98.00;;;;;;6118028;23;20418;-64
2022/04/02 12:38:39;;;;;;;1.70;1.40;;;3.20;98.00;;;;;;6117432;23;20409;-64
2022/04/02 12:41:20;;;;;;;1.50;1.40;;;3.20;98.00;;;;;;6117146;23;20402;-64
2022/04/02 12:43:49;;;;;;;1.37;1.20;;;3.20;98.00;;;;;;6092093;23;20484;-65
2022/04/02 12:46:23;;;;;;;1.47;1.33;;;3.30;98.00;;;;;;6117585;23;20405;-64
2022/04/02 12:48:50;;;;;;;1.60;1.20;;;3.30;98.00;;;;;;6117728;23;20414;-64
2022/04/02 12:51:19;;;;;;;1.40;1.30;;;3.30;98.00;;;;;;6116576;23;20491;-64
2022/04/02 12:53:48;;;;;;;1.50;1.23;;;3.40;98.00;;;;;;6118069;23;20430;-64
2022/04/02 12:56:33;;;;;;;1.70;1.60;;;3.40;98.00;;;;;;6092536;23;20641;-64
2022/04/02 12:59:01;;;;;;;1.97;1.33;;;3.50;98.00;;;;;;6118275;23;20406;-64
2022/04/02 13:01:32;;;;;;;2.90;1.47;;;3.30;98.00;;;;;;6117975;23;20397;-65
2022/04/02 13:04:08;;;;;;;1.47;1.40;;;3.30;98.00;;;;;;6118351;23;20474;-64
2022/04/02 13:06:37;;;;;;;1.50;1.40;;;3.20;98.00;;;;;;6117645;23;20496;-64
2022/04/02 13:09:05;;;;;;;4.10;2.03;;;3.30;98.00;;;;;;6118303;23;20475;-64
2022/04/02 13:11:40;;;;;;;1.37;1.30;;;3.40;98.00;;;;;;6117127;23;20431;-65
2022/04/02 13:14:13;;;;;;;1.30;1.27;;;3.50;98.00;;;;;;6117644;23;20490;-65
2022/04/02 13:16:42;;;;;;;2.33;1.83;;;3.50;98.00;;;;;;6117965;23;20463;-64
2022/04/02 13:22:02;;;;;;;1.77;1.30;;;3.60;98.00;;;;;;6117743;23;20400;-66
2022/04/02 13:24:32;;;;;;;1.50;1.37;;;3.50;98.00;;;;;;6118233;23;20968;-65